Search for airport 
image banner adimage banner adimage banner ad
image banner ad

PA24 - Excela Health Latrobe Hospital

Located in Latrobe, United States

ICAO - PA24, IATA -

Data provided by Airmate  

General information

Coordinates: N40°19'13" W79°23'37"
Elevation is 1039 feet MSL.
Magnetic variation is -09° East
View others Airports in Pennsylvania

Operational data

Special qualification required
Current time UTC:
Current local time:
Weather at : KLBE - Arnold Palmer Rgnl ( 5 km )
METAR: KLBE 182345Z 00000KT 15SM CLR 24/06 A3027
TAF: KLBE 181726Z 1818/1918 32003KT P6SM SCT050 FM182300 00000KT P6SM SKC FM191500 14004KT P6SM SCT040
View NOTAMs / SUP AIP / TFR affecting this airport [VIEW]
Communications frequencies: [VIEW]

Runways:

Airport contact information

Address: Latrobe United States

Satellite view of PA24